createdAt,value
2022-11-29T00:01:30.040Z,3.37
2022-11-29T00:03:59.699Z,3.38
2022-11-29T00:06:31.666Z,3.39
2022-11-29T00:09:06.367Z,3.41
2022-11-29T00:12:12.296Z,3.40
2022-11-29T00:14:40.752Z,3.40
2022-11-29T00:17:10.855Z,3.43
2022-11-29T00:19:44.656Z,3.45
2022-11-29T00:22:11.698Z,3.48
2022-11-29T00:24:39.776Z,3.48
2022-11-29T00:27:06.912Z,3.45
2022-11-29T00:29:33.956Z,3.45
2022-11-29T00:32:00.973Z,3.47
2022-11-29T00:34:28.365Z,3.48
2022-11-29T00:36:55.473Z,3.48
2022-11-29T00:39:23.005Z,3.49
2022-11-29T00:41:50.060Z,3.50
2022-11-29T00:44:20.384Z,3.51
2022-11-29T00:46:48.551Z,3.49
2022-11-29T00:49:15.665Z,3.46
2022-11-29T00:51:42.678Z,3.47
2022-11-29T00:54:09.689Z,3.50
2022-11-29T00:56:36.791Z,3.52
2022-11-29T00:59:03.884Z,3.54
2022-11-29T01:01:30.925Z,3.53
2022-11-29T01:04:00.574Z,3.52
2022-11-29T01:06:27.580Z,3.52
2022-11-29T01:08:54.635Z,3.52
2022-11-29T01:11:24.866Z,3.50
2022-11-29T01:13:55.828Z,3.52
2022-11-29T01:16:23.256Z,3.54
2022-11-29T01:18:50.396Z,3.55
2022-11-29T01:21:20.939Z,3.56
2022-11-29T01:23:49.194Z,3.55
2022-11-29T01:26:20.124Z,3.53
2022-11-29T01:28:49.128Z,3.52
2022-11-29T01:31:19.365Z,3.51
2022-11-29T01:33:46.340Z,3.51
2022-11-29T01:36:14.225Z,3.52
2022-11-29T01:38:44.696Z,3.55
2022-11-29T01:41:21.298Z,3.54
2022-11-29T01:44:02.849Z,3.53
2022-11-29T01:46:38.557Z,3.53
2022-11-29T01:49:12.785Z,3.54
2022-11-29T01:51:47.491Z,3.54
2022-11-29T01:54:14.681Z,3.56
2022-11-29T01:56:45.250Z,3.56
2022-11-29T01:59:15.291Z,3.57
2022-11-29T02:01:42.482Z,3.56
2022-11-29T02:04:10.111Z,3.56
2022-11-29T02:06:39.384Z,3.57
2022-11-29T02:09:20.357Z,3.58
2022-11-29T02:12:08.566Z,3.56
2022-11-29T02:14:59.617Z,3.58
2022-11-29T02:17:41.566Z,3.60
2022-11-29T02:20:33.171Z,3.61
2022-11-29T02:23:27.936Z,3.60
2022-11-29T02:26:37.220Z,3.60
2022-11-29T02:29:31.249Z,3.62
2022-11-29T02:32:36.106Z,3.64
2022-11-29T02:35:23.207Z,3.67
2022-11-29T02:38:06.119Z,3.64
2022-11-29T02:41:02.577Z,3.63
2022-11-29T02:43:52.692Z,3.64
2022-11-29T02:46:38.076Z,3.65
2022-11-29T02:49:21.891Z,3.64
2022-11-29T02:51:48.727Z,3.64
2022-11-29T02:54:23.921Z,3.64
2022-11-29T02:56:54.517Z,3.64
2022-11-29T02:59:40.089Z,3.61
2022-11-29T03:02:24.609Z,3.57
2022-11-29T03:05:17.032Z,3.56
2022-11-29T03:08:05.730Z,3.56
2022-11-29T03:11:01.150Z,3.56
2022-11-29T03:14:23.987Z,3.55
2022-11-29T03:17:00.469Z,3.52
2022-11-29T03:19:47.558Z,3.51
2022-11-29T03:22:48.027Z,3.49
2022-11-29T03:25:31.440Z,3.48
2022-11-29T03:28:12.808Z,3.49
2022-11-29T03:30:50.416Z,3.51
2022-11-29T03:33:27.511Z,3.52
2022-11-29T03:36:06.614Z,3.54
2022-11-29T03:38:41.529Z,3.55
2022-11-29T03:41:24.464Z,3.54
2022-11-29T03:44:03.179Z,3.52
2022-11-29T03:47:01.027Z,3.51
2022-11-29T03:49:38.385Z,3.46
2022-11-29T03:52:26.514Z,3.46
2022-11-29T03:55:19.504Z,3.48
2022-11-29T03:57:55.508Z,3.50
2022-11-29T04:00:23.308Z,3.52
2022-11-29T04:03:09.117Z,3.50
2022-11-29T04:05:54.909Z,3.47
2022-11-29T04:08:47.671Z,3.45
2022-11-29T04:11:20.648Z,3.47
2022-11-29T04:14:05.310Z,3.49
2022-11-29T04:17:02.564Z,3.51
2022-11-29T04:19:50.475Z,3.54
2022-11-29T04:22:36.377Z,3.55
2022-11-29T04:25:27.680Z,3.55
2022-11-29T04:28:38.573Z,3.56
2022-11-29T04:31:30.023Z,3.57
2022-11-29T04:33:59.974Z,3.54
2022-11-29T04:36:29.828Z,3.52
2022-11-29T04:39:12.140Z,3.51
2022-11-29T04:42:21.019Z,3.51
2022-11-29T04:45:14.911Z,3.48
2022-11-29T04:48:03.772Z,3.49
2022-11-29T04:50:36.386Z,3.51
2022-11-29T04:53:24.562Z,3.52
2022-11-29T04:56:25.421Z,3.52
2022-11-29T04:59:05.603Z,3.52
2022-11-29T05:01:36.977Z,3.51
2022-11-29T05:04:29.893Z,3.50
2022-11-29T05:07:08.408Z,3.51
2022-11-29T05:09:41.153Z,3.50
2022-11-29T05:12:16.968Z,3.47
2022-11-29T05:15:05.105Z,3.48
2022-11-29T05:18:01.208Z,3.48
2022-11-29T05:20:46.928Z,3.48
2022-11-29T05:23:36.081Z,3.50
2022-11-29T05:26:13.538Z,3.51
2022-11-29T05:28:57.711Z,3.51
2022-11-29T05:31:29.520Z,3.52
2022-11-29T05:34:05.525Z,3.53
2022-11-29T05:36:50.800Z,3.53
2022-11-29T05:39:36.230Z,3.52
2022-11-29T05:42:22.073Z,3.49
2022-11-29T05:45:02.377Z,3.46
2022-11-29T05:47:41.327Z,3.40
2022-11-29T05:50:08.564Z,3.43
2022-11-29T05:52:41.478Z,3.44
2022-11-29T05:55:14.843Z,3.45
2022-11-29T05:58:04.045Z,3.46
2022-11-29T06:00:48.459Z,3.45
2022-11-29T06:03:29.604Z,3.47
2022-11-29T06:06:01.546Z,3.47
2022-11-29T06:08:34.485Z,3.45
2022-11-29T06:11:34.920Z,3.46
2022-11-29T06:14:13.625Z,3.42
2022-11-29T06:16:46.243Z,3.32
2022-11-29T06:19:39.759Z,3.24
2022-11-29T06:22:14.503Z,3.13
2022-11-29T06:25:22.460Z,3.14
2022-11-29T06:28:18.792Z,3.18
2022-11-29T06:30:54.565Z,3.17
2022-11-29T06:33:41.252Z,3.12
2022-11-29T06:36:19.346Z,3.10
2022-11-29T06:38:46.694Z,3.05
2022-11-29T06:41:21.077Z,3.07
2022-11-29T06:43:49.165Z,3.09
2022-11-29T06:46:44.897Z,3.13
2022-11-29T06:49:28.447Z,3.14
2022-11-29T06:52:12.539Z,3.15
2022-11-29T06:55:10.154Z,3.08
2022-11-29T06:57:55.326Z,3.03
2022-11-29T07:00:26.551Z,3.01
2022-11-29T07:03:12.173Z,3.04
2022-11-29T07:05:40.410Z,3.07
2022-11-29T07:08:15.462Z,3.04
2022-11-29T07:10:43.697Z,2.98
2022-11-29T07:13:12.980Z,2.88
2022-11-29T07:16:13.925Z,2.83
2022-11-29T07:19:11.740Z,2.83
2022-11-29T07:22:15.329Z,2.83
2022-11-29T07:25:03.109Z,2.82
2022-11-29T07:27:41.256Z,2.83
2022-11-29T07:30:11.321Z,2.89
2022-11-29T07:33:00.662Z,2.96
2022-11-29T07:35:33.799Z,2.96
2022-11-29T07:38:03.597Z,2.86
2022-11-29T07:40:45.161Z,2.80
2022-11-29T07:43:29.911Z,2.82
2022-11-29T07:45:57.031Z,2.85
2022-11-29T07:48:24.044Z,2.82
2022-11-29T07:50:50.980Z,2.81
2022-11-29T07:53:19.794Z,2.84
2022-11-29T07:55:48.070Z,2.85
2022-11-29T07:58:17.050Z,2.86
2022-11-29T08:00:45.217Z,2.83
2022-11-29T08:03:12.310Z,2.83
2022-11-29T08:05:39.888Z,2.85
2022-11-29T08:08:07.202Z,2.86
2022-11-29T08:10:35.042Z,2.92
2022-11-29T08:13:02.330Z,2.92
2022-11-29T08:15:29.504Z,2.95
2022-11-29T08:17:56.522Z,2.98
2022-11-29T08:20:23.524Z,3.00
2022-11-29T08:22:58.676Z,3.02
2022-11-29T08:25:27.124Z,3.05
2022-11-29T08:27:55.300Z,3.07
2022-11-29T08:30:23.514Z,3.05
2022-11-29T08:32:51.952Z,3.00
2022-11-29T08:35:21.242Z,2.89
2022-11-29T08:37:48.551Z,2.85
2022-11-29T08:40:16.488Z,2.77
2022-11-29T08:42:43.365Z,2.73
2022-11-29T08:45:11.725Z,2.67
2022-11-29T08:47:41.656Z,2.65
2022-11-29T08:50:11.799Z,2.67
2022-11-29T08:53:00.035Z,2.70
2022-11-29T08:55:31.522Z,2.77
2022-11-29T08:58:04.829Z,2.81
2022-11-29T09:00:32.781Z,2.86
2022-11-29T09:03:20.171Z,2.90
2022-11-29T09:05:47.278Z,2.88
2022-11-29T09:08:14.609Z,2.87
2022-11-29T09:10:42.248Z,2.88
2022-11-29T09:13:10.390Z,2.91
2022-11-29T09:15:38.724Z,2.93
2022-11-29T09:18:05.807Z,2.90
2022-11-29T09:20:34.160Z,2.90
2022-11-29T09:23:01.267Z,2.87
2022-11-29T09:25:28.731Z,2.84
2022-11-29T09:28:00.765Z,2.83
2022-11-29T09:30:30.818Z,2.85
2022-11-29T09:33:02.375Z,2.88
2022-11-29T09:35:29.711Z,2.89
2022-11-29T09:37:56.670Z,2.94
2022-11-29T09:40:33.297Z,2.94
2022-11-29T09:43:24.873Z,2.98
2022-11-29T09:46:18.361Z,3.02
2022-11-29T09:49:02.569Z,3.01
2022-11-29T09:52:09.793Z,2.98
2022-11-29T09:54:58.557Z,2.95
2022-11-29T09:57:27.954Z,2.96
2022-11-29T10:00:01.353Z,2.96
2022-11-29T10:02:43.848Z,2.96
2022-11-29T10:05:17.070Z,2.99
2022-11-29T10:08:05.529Z,3.03
2022-11-29T10:10:46.428Z,3.06
2022-11-29T10:13:24.893Z,3.04
2022-11-29T10:16:01.053Z,3.00
2022-11-29T10:18:40.448Z,2.98
2022-11-29T10:21:23.826Z,3.00
2022-11-29T10:23:56.538Z,3.04
2022-11-29T10:26:24.543Z,3.09
2022-11-29T10:28:54.691Z,3.10
2022-11-29T10:31:34.452Z,3.08
2022-11-29T10:34:12.207Z,3.08
2022-11-29T10:36:51.857Z,3.08
2022-11-29T10:39:24.739Z,3.10
2022-11-29T10:41:56.401Z,3.15
2022-11-29T10:44:24.268Z,3.17
2022-11-29T10:46:51.896Z,3.15
2022-11-29T10:49:22.936Z,3.17
2022-11-29T10:51:50.019Z,3.19
2022-11-29T10:54:39.836Z,3.18
2022-11-29T10:57:16.046Z,3.13
2022-11-29T11:00:06.449Z,3.03
2022-11-29T11:02:33.984Z,3.01
2022-11-29T11:05:01.408Z,3.02
2022-11-29T11:07:33.002Z,3.05
2022-11-29T11:10:00.511Z,3.07
2022-11-29T11:12:30.232Z,3.08
2022-11-29T11:15:29.337Z,3.05
2022-11-29T11:18:04.264Z,2.99
2022-11-29T11:20:34.609Z,2.95
2022-11-29T11:23:05.002Z,2.98
2022-11-29T11:25:34.969Z,3.01
2022-11-29T11:28:19.927Z,3.04
2022-11-29T11:30:57.718Z,3.06
2022-11-29T11:33:30.712Z,3.08
2022-11-29T11:36:13.632Z,3.08
2022-11-29T11:38:52.793Z,3.05
2022-11-29T11:41:53.519Z,3.06
2022-11-29T11:44:48.102Z,3.11
2022-11-29T11:47:30.702Z,3.16
2022-11-29T11:50:03.493Z,3.19
2022-11-29T11:52:40.545Z,3.18
2022-11-29T11:55:21.153Z,3.16
2022-11-29T11:58:06.030Z,3.14
2022-11-29T12:01:04.263Z,3.16
2022-11-29T12:03:52.880Z,3.21
2022-11-29T12:06:47.423Z,3.24
2022-11-29T12:09:27.014Z,3.27
2022-11-29T12:11:59.995Z,3.28
2022-11-29T12:14:33.055Z,3.30
2022-11-29T12:17:18.471Z,3.32
2022-11-29T12:20:12.942Z,3.34
2022-11-29T12:23:13.630Z,3.35
2022-11-29T12:26:02.207Z,3.39
2022-11-29T12:28:35.096Z,3.40
2022-11-29T12:31:17.407Z,3.39
2022-11-29T12:33:50.387Z,3.39
2022-11-29T12:36:26.452Z,3.40
2022-11-29T12:39:34.941Z,3.40
2022-11-29T12:42:26.539Z,3.39
2022-11-29T12:44:53.466Z,3.43
2022-11-29T12:47:36.598Z,3.44
2022-11-29T12:50:40.248Z,3.45
2022-11-29T12:53:32.425Z,3.40
2022-11-29T12:56:46.926Z,3.38
2022-11-29T12:59:51.186Z,3.35
2022-11-29T13:02:29.046Z,3.36
2022-11-29T13:05:33.494Z,3.39
2022-11-29T13:08:18.513Z,3.39
2022-11-29T13:10:48.242Z,3.38
2022-11-29T13:14:41.702Z,3.36
2022-11-29T13:17:05.415Z,3.34
2022-11-29T13:19:38.805Z,3.36
2022-11-29T13:22:15.196Z,3.36
2022-11-29T13:24:51.306Z,3.38
2022-11-29T13:27:25.002Z,3.39
2022-11-29T13:29:53.380Z,3.40
2022-11-29T13:32:32.101Z,3.39
2022-11-29T13:35:07.517Z,3.38
2022-11-29T13:37:55.198Z,3.39
2022-11-29T13:40:36.822Z,3.41
2022-11-29T13:43:30.840Z,3.43
2022-11-29T13:46:18.553Z,3.43
2022-11-29T13:48:50.002Z,3.41
2022-11-29T13:51:37.088Z,3.39
2022-11-29T13:54:31.769Z,3.35
2022-11-29T13:57:09.327Z,3.34
2022-11-29T13:59:42.825Z,3.34
2022-11-29T14:02:31.087Z,3.34
2022-11-29T14:04:58.471Z,3.34
2022-11-29T14:07:25.546Z,3.31
2022-11-29T14:10:05.364Z,3.29
2022-11-29T14:12:40.992Z,3.28
2022-11-29T14:15:10.951Z,3.26
2022-11-29T14:17:46.996Z,3.24
2022-11-29T14:20:22.814Z,3.22
2022-11-29T14:23:31.843Z,3.22
2022-11-29T14:25:58.836Z,3.21
2022-11-29T14:28:35.191Z,3.20
2022-11-29T14:31:03.478Z,3.19
2022-11-29T14:33:55.413Z,3.21
2022-11-29T14:36:38.237Z,3.22
2022-11-29T14:39:42.717Z,3.21
2022-11-29T14:42:28.534Z,3.19
2022-11-29T14:45:00.236Z,3.16
2022-11-29T14:47:32.509Z,3.15
2022-11-29T14:50:03.611Z,3.15
2022-11-29T14:52:38.666Z,3.16
2022-11-29T14:55:31.007Z,3.15
2022-11-29T14:58:01.363Z,3.15
2022-11-29T15:00:34.431Z,3.16
2022-11-29T15:03:20.863Z,3.15
2022-11-29T15:05:55.012Z,3.13
2022-11-29T15:08:24.945Z,3.14
2022-11-29T15:11:12.077Z,3.17
2022-11-29T15:13:50.658Z,3.19
2022-11-29T15:16:28.388Z,3.19
2022-11-29T15:19:07.549Z,3.21
2022-11-29T15:21:43.523Z,3.18
2022-11-29T15:24:13.817Z,3.14
2022-11-29T15:27:03.478Z,3.13
2022-11-29T15:29:31.228Z,3.15
2022-11-29T15:32:01.217Z,3.15
2022-11-29T15:34:36.475Z,3.16
2022-11-29T15:37:04.161Z,3.16
2022-11-29T15:39:34.138Z,3.16
2022-11-29T15:42:13.328Z,3.18
2022-11-29T15:44:48.346Z,3.25
2022-11-29T15:47:20.804Z,3.29
2022-11-29T15:49:49.332Z,3.31
2022-11-29T15:52:38.060Z,3.31
2022-11-29T15:55:11.325Z,3.29
2022-11-29T15:57:44.755Z,3.28
2022-11-29T16:00:21.194Z,3.28
2022-11-29T16:03:02.261Z,3.27
2022-11-29T16:05:35.822Z,3.28
2022-11-29T16:08:25.942Z,3.32
2022-11-29T16:10:53.140Z,3.34
2022-11-29T16:13:33.992Z,3.32
2022-11-29T16:16:10.186Z,3.27
2022-11-29T16:18:40.421Z,3.23
2022-11-29T16:21:22.408Z,3.21
2022-11-29T16:23:49.675Z,3.20
2022-11-29T16:26:29.340Z,3.19
2022-11-29T16:28:59.576Z,3.19
2022-11-29T16:31:36.139Z,3.20
2022-11-29T16:34:09.747Z,3.19
2022-11-29T16:36:39.110Z,3.16
2022-11-29T16:39:16.540Z,3.17
2022-11-29T16:41:43.848Z,3.20
2022-11-29T16:44:50.131Z,3.22
2022-11-29T16:47:22.792Z,3.25
2022-11-29T16:50:01.896Z,3.26
2022-11-29T16:52:31.518Z,3.25
2022-11-29T16:54:59.201Z,3.23
2022-11-29T16:57:28.214Z,3.21
2022-11-29T17:00:02.533Z,3.20
2022-11-29T17:02:30.023Z,3.20
2022-11-29T17:04:58.060Z,3.17
2022-11-29T17:07:31.483Z,3.17
2022-11-29T17:09:59.210Z,3.15
2022-11-29T17:12:26.337Z,3.15
2022-11-29T17:14:53.533Z,3.17
2022-11-29T17:17:43.239Z,3.18
2022-11-29T17:20:21.235Z,3.11
2022-11-29T17:22:52.330Z,3.19
2022-11-29T17:25:22.995Z,3.18
2022-11-29T17:27:53.280Z,3.18
2022-11-29T17:30:20.876Z,3.17
2022-11-29T17:32:50.553Z,3.19
2022-11-29T17:35:20.185Z,3.19
2022-11-29T17:37:49.807Z,3.19
2022-11-29T17:40:25.022Z,3.15
2022-11-29T17:42:56.081Z,3.12
2022-11-29T17:45:26.608Z,3.10
2022-11-29T17:47:59.415Z,3.09
2022-11-29T17:50:31.667Z,3.10
2022-11-29T17:53:20.928Z,3.11
2022-11-29T17:56:19.955Z,3.11
2022-11-29T17:58:58.159Z,3.09
2022-11-29T18:01:28.100Z,3.09
2022-11-29T18:04:01.348Z,3.09
2022-11-29T18:06:35.072Z,3.11
2022-11-29T18:09:07.086Z,3.12
2022-11-29T18:11:49.331Z,3.10
2022-11-29T18:14:20.363Z,3.08
2022-11-29T18:16:54.008Z,3.05
2022-11-29T18:19:22.062Z,3.06
2022-11-29T18:25:30.530Z,3.08
2022-11-29T18:27:51.715Z,3.08
2022-11-29T18:30:19.112Z,3.06
2022-11-29T18:32:46.419Z,3.04
2022-11-29T18:35:15.996Z,3.03
2022-11-29T18:38:13.373Z,3.03
2022-11-29T18:40:32.548Z,3.03
2022-11-29T18:43:05.677Z,3.03
2022-11-29T18:45:38.142Z,3.03
2022-11-29T18:48:09.860Z,3.02
2022-11-29T18:50:36.973Z,2.99
2022-11-29T18:53:04.481Z,3.01
2022-11-29T18:55:31.928Z,3.01
2022-11-29T18:57:58.974Z,3.01
2022-11-29T19:00:26.129Z,3.01
2022-11-29T19:02:53.558Z,3.01
2022-11-29T19:05:25.170Z,2.98
2022-11-29T19:07:52.337Z,2.97
2022-11-29T19:10:19.272Z,2.98
2022-11-29T19:12:46.241Z,2.99
2022-11-29T19:15:13.427Z,3.00
2022-11-29T19:17:43.284Z,2.99
2022-11-29T19:20:13.466Z,2.97
2022-11-29T19:22:40.668Z,2.95
2022-11-29T19:25:08.228Z,2.94
2022-11-29T19:27:35.256Z,2.94
2022-11-29T19:30:02.390Z,2.91
2022-11-29T19:32:29.517Z,2.92
2022-11-29T19:34:56.901Z,2.90
2022-11-29T19:37:23.969Z,2.89
2022-11-29T19:39:53.643Z,2.89
2022-11-29T19:42:22.268Z,2.90
2022-11-29T19:45:18.722Z,2.92
2022-11-29T19:48:09.721Z,2.93
2022-11-29T19:57:23.768Z,2.90
2022-11-29T19:59:50.991Z,2.89
2022-11-29T20:02:20.677Z,2.88
2022-11-29T20:04:52.944Z,2.87
2022-11-29T20:07:23.209Z,2.86
2022-11-29T20:09:50.906Z,2.85
2022-11-29T20:12:21.190Z,2.85
2022-11-29T20:15:00.949Z,2.86
2022-11-29T20:17:29.703Z,2.85
2022-11-29T20:20:03.929Z,2.85
2022-11-29T20:22:39.847Z,2.82
2022-11-29T20:25:09.702Z,2.79
2022-11-29T20:27:37.859Z,2.76
2022-11-29T20:30:06.751Z,2.79
2022-11-29T20:32:36.379Z,2.81
2022-11-29T20:35:03.935Z,2.82
2022-11-29T20:37:43.070Z,2.81
2022-11-29T20:41:02.719Z,2.79
2022-11-29T20:43:58.307Z,2.77
2022-11-29T20:46:26.145Z,2.78
2022-11-29T20:48:53.876Z,2.80
2022-11-29T20:51:39.538Z,2.80
2022-11-29T20:54:06.619Z,2.80
2022-11-29T20:56:33.662Z,2.81
2022-11-29T20:59:05.712Z,2.75
2022-11-29T21:01:35.493Z,2.80
2022-11-29T21:04:03.119Z,2.80
2022-11-29T21:06:30.216Z,2.81
2022-11-29T21:08:57.806Z,2.82
2022-11-29T21:11:25.519Z,2.80
2022-11-29T21:13:52.839Z,2.79
2022-11-29T21:16:27.132Z,2.80
2022-11-29T21:19:02.358Z,2.83
2022-11-29T21:21:40.018Z,2.85
2022-11-29T21:24:52.605Z,2.87
2022-11-29T21:27:34.103Z,2.86
2022-11-29T21:30:05.539Z,2.82
2022-11-29T21:32:34.206Z,2.78
2022-11-29T21:35:08.428Z,2.76
2022-11-29T21:37:37.028Z,2.77
2022-11-29T21:40:04.874Z,2.78
2022-11-29T21:42:34.547Z,2.78
2022-11-29T21:45:01.832Z,2.78
2022-11-29T21:47:32.944Z,2.75
2022-11-29T21:50:00.084Z,2.76
2022-11-29T21:52:27.277Z,2.78
2022-11-29T21:54:57.045Z,2.81
2022-11-29T21:57:24.143Z,2.76
2022-11-29T21:59:51.304Z,2.82
2022-11-29T22:02:20.992Z,2.82
2022-11-29T22:04:48.760Z,2.81
2022-11-29T22:07:15.944Z,2.82
2022-11-29T22:09:42.984Z,2.82
2022-11-29T22:12:32.563Z,2.83
2022-11-29T22:14:57.285Z,2.84
2022-11-29T22:17:24.269Z,2.84
2022-11-29T22:19:59.149Z,2.83
2022-11-29T22:23:17.642Z,2.83
2022-11-29T22:29:54.697Z,2.85
2022-11-29T22:32:23.209Z,2.82
2022-11-29T22:34:51.818Z,2.82
2022-11-29T22:37:44.438Z,2.81
2022-11-29T22:40:13.246Z,2.79
2022-11-29T22:49:49.838Z,2.80
2022-11-29T22:53:10.699Z,2.80
2022-11-29T23:23:07.058Z,2.69
2022-11-29T23:25:36.695Z,2.68
2022-11-29T23:28:06.211Z,2.68
2022-11-29T23:30:35.708Z,2.68
2022-11-29T23:33:05.348Z,2.69
2022-11-29T23:35:36.671Z,2.70
2022-11-29T23:38:06.927Z,2.72
2022-11-29T23:40:38.592Z,2.73
2022-11-29T23:43:08.374Z,2.73
2022-11-29T23:45:39.440Z,2.75
2022-11-29T23:48:09.295Z,2.76
2022-11-29T23:50:36.276Z,2.80
2022-11-29T23:53:03.307Z,2.82
2022-11-29T23:55:30.356Z,2.84
2022-11-29T23:58:00.263Z,2.85
